Overview Statistics Trail Chart Weather Telemetry Raw packets
 

This is the latest recevied weather packets stored in our database for station/object AG1T-20. If no packets are shown the sender has not sent any weather packets the latest 10 day(s).

<< 45 46 47 48 49 50 51 >>
Time Temp. Humidity Pressure Rain* Wind** Luminosity Snow
1787917805 21.11° C 52% 1020.4 hPa 0 mm - 0 W/m² -
1787917205 20° C 56% 1020.4 hPa 0 mm - 0 W/m² -
1787916605 20.56° C 55% 1020.4 hPa 0 mm - 0 W/m² -
1787916005 21.67° C 50% 1020.4 hPa 0 mm - 0 W/m² -
1787915405 21.11° C 49% 1020.4 hPa 0 mm - 0 W/m² -
1787914805 21.67° C 49% 1020.4 hPa 0 mm - 0 W/m² -
1787914205 21.11° C 48% 1020.5 hPa 0 mm - 0 W/m² -
1787913605 20.56° C 50% 1020.5 hPa 0 mm - 0 W/m² -
1787913005 21.11° C 51% 1020.5 hPa 0 mm - 0 W/m² -
1787912404 21.11° C 51% 1020.5 hPa 0 mm - 0 W/m² -
1787911805 21.11° C 51% 1020.5 hPa 0 mm - 0 W/m² -
1787911205 21.67° C 48% 1020.5 hPa 0 mm - 0 W/m² -
1787910605 22.22° C 46% 1020.7 hPa 0 mm - 0 W/m² -
1787910005 22.22° C 46% 1020.7 hPa 0 mm - 0 W/m² -
1787909405 22.22° C 46% 1020.7 hPa 0 mm - 0 W/m² -
1787908805 22.22° C 46% 1020.7 hPa 0 mm - 0 W/m² -
1787908205 22.78° C 44% 1020.7 hPa 0 mm - 0 W/m² -
1787907605 23.33° C 43% 1020.7 hPa 0 mm - 0 W/m² -
1787907013 23.33° C 43% 1020.9 hPa 0 mm - 0 W/m² -
1787906405 22.78° C 44% 1020.9 hPa 0 mm - 0 W/m² -
1787905805 21.67° C 47% 1020.9 hPa 0 mm - 0 W/m² -
1787905205 21.67° C 47% 1020.9 hPa 0 mm - 0 W/m² -
1787904605 22.22° C 45% 1020.9 hPa 0 mm - 0 W/m² -
1787904005 22.22° C 47% 1020.9 hPa 0 mm - 0 W/m² -
1787903405 21.67° C 49% 1020.4 hPa 0 mm - 0 W/m² -

* Rain latest hour (hover to see other rain measurements)
** Current wind speed in m/s (hover to see current wind gust speed)